Time;durP1;ratioP1;P1;durP2;ratioP2;P2;SDS_P1;SDS_P2;PMS_P1;PMS_P2;Temp;Humidity;BMP_temperature;BMP_pressure;BME280_temperature;BME280_humidity;BME280_pressure;Samples;Min_cycle;Max_cycle;Signal;HPM_P1;HPM_P2
2022/08/22 00:00:52;;;;;;;15.80;2.08;;;40.40;55.20;;;;;;4989714;28;20062;-52
2022/08/22 00:03:28;;;;;;;12.38;1.85;;;40.40;55.30;;;;;;5001037;28;20110;-55
2022/08/22 00:06:09;;;;;;;12.35;3.85;;;40.30;55.10;;;;;;5004418;28;20051;-57
2022/08/22 00:08:41;;;;;;;9.73;2.33;;;40.20;55.50;;;;;;5007357;28;20073;-57
2022/08/22 00:11:16;;;;;;;14.38;2.45;;;40.30;55.40;;;;;;4991445;28;20068;-59
2022/08/22 00:14:09;;;;;;;10.20;2.13;;;40.30;54.90;;;;;;4994014;28;20612;-59
2022/08/22 00:16:53;;;;;;;9.27;2.30;;;40.20;55.20;;;;;;5008962;28;20159;-58
2022/08/22 00:19:52;;;;;;;13.05;2.15;;;40.10;55.20;;;;;;4993908;28;20044;-58
2022/08/22 00:22:25;;;;;;;11.65;2.22;;;40.00;55.50;;;;;;5038936;28;20079;-58
2022/08/22 00:25:09;;;;;;;9.30;1.90;;;39.90;55.30;;;;;;5050005;28;20057;-55
2022/08/22 00:28:05;;;;;;;22.17;2.28;;;39.80;55.50;;;;;;5051096;28;20515;-53
2022/08/22 00:30:43;;;;;;;13.75;2.38;;;39.70;55.80;;;;;;5051432;28;20085;-55
2022/08/22 00:33:23;;;;;;;15.80;2.15;;;39.70;55.70;;;;;;5050532;28;20097;-58
2022/08/22 00:36:01;;;;;;;13.00;2.28;;;39.60;55.90;;;;;;5049609;28;20043;-58
2022/08/22 00:38:40;;;;;;;9.70;2.10;;;39.60;55.90;;;;;;5050150;28;20071;-57
2022/08/22 00:41:17;;;;;;;14.73;2.03;;;39.60;55.90;;;;;;5049872;28;20409;-54
2022/08/22 00:43:50;;;;;;;11.82;2.53;;;39.50;56.10;;;;;;5051070;28;20077;-57
2022/08/22 00:46:31;;;;;;;10.50;2.45;;;39.30;56.30;;;;;;5050785;28;20053;-58
2022/08/22 00:49:22;;;;;;;12.00;2.10;;;39.30;56.70;;;;;;5067140;28;20744;-60
2022/08/22 00:52:12;;;;;;;12.43;2.53;;;39.20;56.70;;;;;;5051483;28;20177;-57
2022/08/22 00:55:16;;;;;;;14.18;2.47;;;39.20;56.90;;;;;;5050785;28;20058;-57
2022/08/22 00:58:02;;;;;;;18.05;2.22;;;39.00;56.90;;;;;;5051308;28;20538;-55
2022/08/22 01:00:33;;;;;;;19.20;2.10;;;38.90;57.30;;;;;;5038934;28;20144;-55
2022/08/22 01:03:31;;;;;;;12.77;2.13;;;38.90;57.50;;;;;;5048206;28;20048;-53
2022/08/22 01:06:21;;;;;;;13.30;2.15;;;38.90;57.50;;;;;;5050665;28;20541;-57
2022/08/22 01:09:13;;;;;;;9.55;2.08;;;38.70;57.70;;;;;;5051079;28;20424;-58
2022/08/22 01:12:10;;;;;;;10.07;2.00;;;38.60;58.40;;;;;;5052142;28;20746;-55
2022/08/22 01:14:40;;;;;;;12.55;2.25;;;38.50;58.40;;;;;;5051672;28;20186;-58
2022/08/22 01:17:19;;;;;;;16.90;2.20;;;38.40;58.60;;;;;;5049317;28;20125;-57
2022/08/22 01:20:13;;;;;;;12.90;2.47;;;38.30;58.50;;;;;;5050272;28;20068;-55
2022/08/22 01:22:59;;;;;;;12.07;2.13;;;38.30;58.60;;;;;;5049871;28;20054;-49
2022/08/22 01:25:56;;;;;;;14.20;1.80;;;38.20;58.90;;;;;;5049081;28;20073;-56
2022/08/22 01:29:06;;;;;;;8.10;2.22;;;38.10;58.90;;;;;;5048603;28;20054;-58
2022/08/22 01:32:17;;;;;;;14.80;2.55;;;38.00;59.20;;;;;;5052232;28;20077;-57
2022/08/22 01:34:53;;;;;;;11.18;2.65;;;37.90;58.90;;;;;;5051212;28;20148;-57
2022/08/22 01:37:31;;;;;;;10.25;1.90;;;37.80;59.10;;;;;;5049508;28;20079;-60
2022/08/22 01:40:29;;;;;;;15.40;2.47;;;37.80;59.10;;;;;;5047872;28;20099;-61
2022/08/22 01:43:42;;;;;;;8.23;1.50;;;37.70;59.20;;;;;;5049899;28;20058;-64
2022/08/22 01:46:26;;;;;;;9.40;2.30;;;37.50;59.40;;;;;;5010904;28;20063;-58
2022/08/22 01:48:56;;;;;;;6.78;2.08;;;37.50;59.40;;;;;;5028873;28;20127;-61
2022/08/22 01:51:30;;;;;;;9.13;1.63;;;37.40;59.70;;;;;;5011175;28;20496;-60
2022/08/22 01:54:05;;;;;;;14.80;2.13;;;37.20;59.60;;;;;;5012305;28;20152;-59
2022/08/22 01:56:37;;;;;;;11.80;2.17;;;37.20;59.80;;;;;;5027452;28;20527;-55
2022/08/22 01:59:43;;;;;;;11.90;1.90;;;37.10;59.90;;;;;;5028188;28;20078;-57
2022/08/22 02:02:22;;;;;;;14.88;2.25;;;37.10;60.00;;;;;;4966951;28;20130;-61
2022/08/22 02:05:17;;;;;;;7.32;1.55;;;37.00;60.10;;;;;;4964843;28;20070;-59
2022/08/22 02:07:52;;;;;;;12.27;1.85;;;36.90;60.30;;;;;;4964392;28;20686;-57
2022/08/22 02:10:52;;;;;;;14.13;2.10;;;36.90;60.50;;;;;;4948146;28;20082;-59
2022/08/22 02:13:32;;;;;;;12.88;1.70;;;36.80;60.80;;;;;;4962295;28;20070;-58
2022/08/22 02:16:10;;;;;;;12.23;2.50;;;36.80;61.80;;;;;;4949801;28;20072;-57
2022/08/22 02:19:06;;;;;;;17.30;2.40;;;36.60;62.40;;;;;;4951382;28;20099;-55
2022/08/22 02:22:02;;;;;;;14.30;2.50;;;36.60;63.20;;;;;;4931860;28;20077;-58
2022/08/22 02:24:43;;;;;;;13.30;2.28;;;36.50;63.70;;;;;;4986514;28;20551;-57
2022/08/22 02:27:33;;;;;;;16.75;2.30;;;36.40;63.70;;;;;;4986047;28;20225;-56
2022/08/22 02:30:09;;;;;;;13.98;2.40;;;36.30;64.10;;;;;;4987814;28;20075;-59
2022/08/22 02:32:54;;;;;;;25.73;2.55;;;36.20;64.50;;;;;;5004473;28;20057;-53
2022/08/22 02:35:46;;;;;;;20.45;2.55;;;36.20;64.80;;;;;;4977661;28;20185;-58
2022/08/22 02:39:07;;;;;;;19.25;2.80;;;36.10;65.30;;;;;;5047859;28;20077;-58
2022/08/22 02:41:54;;;;;;;25.23;3.35;;;36.00;65.60;;;;;;5026394;28;20078;-56
2022/08/22 02:44:38;;;;;;;15.95;2.75;;;35.90;65.80;;;;;;5010602;28;20116;-59
2022/08/22 02:47:32;;;;;;;14.23;2.83;;;35.80;65.90;;;;;;5026770;28;20096;-55
2022/08/22 02:50:29;;;;;;;20.88;2.80;;;35.80;66.20;;;;;;5025867;28;20178;-57
2022/08/22 02:52:58;;;;;;;19.60;2.72;;;35.70;66.00;;;;;;4998134;28;20079;-60
2022/08/22 02:55:47;;;;;;;18.13;2.47;;;35.60;65.80;;;;;;5026155;28;20140;-57
2022/08/22 02:58:13;;;;;;;33.88;3.35;;;35.60;65.90;;;;;;5027594;28;20116;-58
2022/08/22 03:00:46;;;;;;;18.60;2.47;;;35.40;66.00;;;;;;5025587;28;20076;-60
2022/08/22 03:03:27;;;;;;;13.27;2.17;;;35.40;66.20;;;;;;5027042;28;20077;-59
2022/08/22 03:06:05;;;;;;;25.05;2.88;;;35.40;66.30;;;;;;5027482;28;20127;-60
2022/08/22 03:08:40;;;;;;;23.45;2.80;;;35.40;66.30;;;;;;5027355;28;20162;-58
2022/08/22 03:11:23;;;;;;;17.00;2.28;;;35.30;66.20;;;;;;5010404;28;20080;-62
2022/08/22 03:14:13;;;;;;;21.20;3.03;;;35.20;66.20;;;;;;5032731;28;20078;-58
2022/08/22 03:16:47;;;;;;;18.02;2.53;;;35.10;66.30;;;;;;5018910;28;20099;-60
2022/08/22 03:19:22;;;;;;;25.02;2.95;;;35.20;66.30;;;;;;5064550;28;20064;-61
2022/08/22 03:22:04;;;;;;;14.15;2.90;;;35.10;66.10;;;;;;5048111;28;20082;-58
2022/08/22 03:24:53;;;;;;;10.52;2.72;;;35.00;66.50;;;;;;5048519;28;20161;-66
2022/08/22 03:27:38;;;;;;;22.50;2.92;;;34.90;66.50;;;;;;5049375;28;20071;-65
2022/08/22 03:30:21;;;;;;;15.90;2.70;;;34.80;67.00;;;;;;5048481;28;20576;-66
2022/08/22 03:32:49;;;;;;;10.02;2.65;;;34.70;67.40;;;;;;5053981;28;20067;-65
2022/08/22 03:35:25;;;;;;;16.38;3.10;;;34.70;67.70;;;;;;5051700;28;20101;-67
2022/08/22 03:38:08;;;;;;;21.67;3.20;;;34.70;68.30;;;;;;5051641;28;20087;-66
2022/08/22 03:40:57;;;;;;;23.10;2.95;;;34.70;68.70;;;;;;5050349;28;20115;-66
2022/08/22 03:43:42;;;;;;;17.33;2.72;;;34.60;69.30;;;;;;5052721;28;20061;-64
2022/08/22 03:46:24;;;;;;;17.63;2.83;;;34.50;69.70;;;;;;5058252;28;20118;-65
2022/08/22 03:49:06;;;;;;;25.88;3.72;;;34.50;70.10;;;;;;5051187;28;20091;-64
2022/08/22 03:51:46;;;;;;;22.25;3.20;;;34.40;70.70;;;;;;5051285;28;20084;-65
2022/08/22 03:54:43;;;;;;;12.75;3.15;;;34.30;71.10;;;;;;5052161;28;20090;-64
2022/08/22 03:57:21;;;;;;;;;;;34.20;71.70;;;;;;5050319;28;20094;-65
2022/08/22 04:00:35;;;;;;;19.80;3.30;;;34.10;72.20;;;;;;5056507;28;19946;-65
2022/08/22 04:03:36;;;;;;;28.92;3.53;;;34.10;72.90;;;;;;5032730;28;20184;-67
2022/08/22 04:06:36;;;;;;;14.65;2.90;;;34.00;73.70;;;;;;5030595;28;20544;-67
2022/08/22 04:09:11;;;;;;;32.42;3.53;;;33.90;74.50;;;;;;5034477;28;20089;-67
2022/08/22 04:12:12;;;;;;;17.58;3.50;;;33.80;74.60;;;;;;5016333;28;20103;-65
2022/08/22 04:15:03;;;;;;;15.23;2.90;;;33.80;74.70;;;;;;5014490;28;20465;-67
2022/08/22 04:17:57;;;;;;;21.73;3.13;;;33.80;74.70;;;;;;5028861;28;20113;-66
2022/08/22 04:20:45;;;;;;;11.88;2.72;;;33.70;75.10;;;;;;5029160;28;20160;-66
2022/08/22 04:23:37;;;;;;;15.43;3.55;;;33.70;74.90;;;;;;5031367;28;20120;-66
2022/08/22 04:26:49;;;;;;;22.05;2.90;;;33.60;74.80;;;;;;5005433;28;20665;-65
2022/08/22 04:29:32;;;;;;;16.00;2.95;;;33.60;74.80;;;;;;5012722;28;20116;-64
2022/08/22 04:32:19;;;;;;;22.92;2.38;;;33.50;74.80;;;;;;5029193;28;20176;-65
2022/08/22 04:34:54;;;;;;;19.63;2.60;;;33.40;75.10;;;;;;5029918;28;20531;-66
2022/08/22 04:37:26;;;;;;;18.58;2.70;;;33.40;75.40;;;;;;5054108;28;20090;-67
2022/08/22 04:40:00;;;;;;;16.88;3.05;;;33.30;75.50;;;;;;5066449;28;20111;-64
2022/08/22 04:42:46;;;;;;;15.07;2.53;;;33.30;75.50;;;;;;5049857;28;20076;-64
2022/08/22 04:45:30;;;;;;;17.58;3.33;;;33.30;75.90;;;;;;5064831;28;20080;-66
2022/08/22 04:48:07;;;;;;;11.57;3.03;;;33.20;75.60;;;;;;5051709;28;20100;-65
2022/08/22 04:50:43;;;;;;;20.00;3.13;;;33.30;75.90;;;;;;5051616;28;20068;-64
2022/08/22 04:53:22;;;;;;;22.60;3.20;;;33.20;76.00;;;;;;5050616;28;20068;-65
2022/08/22 04:56:22;;;;;;;15.48;2.63;;;33.30;76.10;;;;;;5051569;28;20075;-66
2022/08/22 04:58:57;;;;;;;9.00;2.78;;;33.20;76.30;;;;;;5050935;28;20072;-63
2022/08/22 05:01:47;;;;;;;20.55;3.58;;;33.20;76.40;;;;;;5049523;28;20168;-64
2022/08/22 05:04:31;;;;;;;10.32;2.30;;;33.10;76.20;;;;;;5049572;28;20080;-66
2022/08/22 05:07:04;;;;;;;11.55;2.88;;;33.10;76.20;;;;;;5052799;28;20134;-65
2022/08/22 05:09:34;;;;;;;6.90;2.38;;;33.10;76.00;;;;;;5065867;28;20150;-64
2022/08/22 05:12:07;;;;;;;10.18;4.18;;;33.10;76.00;;;;;;5050935;28;20154;-63
2022/08/22 05:14:50;;;;;;;20.45;3.78;;;33.00;75.80;;;;;;5051739;28;20123;-64
2022/08/22 05:17:23;;;;;;;9.52;2.65;;;33.00;75.80;;;;;;5051505;28;20102;-65
2022/08/22 05:19:53;;;;;;;8.00;2.28;;;33.00;76.00;;;;;;5050442;28;20637;-64
2022/08/22 05:22:27;;;;;;;9.23;2.60;;;32.90;75.60;;;;;;5049533;28;20170;-64
2022/08/22 05:25:06;;;;;;;14.60;2.47;;;32.90;75.70;;;;;;5057044;28;20724;-63
2022/08/22 05:27:45;;;;;;;10.63;2.15;;;32.90;76.20;;;;;;5062833;28;20122;-64
2022/08/22 05:30:19;;;;;;;13.57;2.65;;;32.90;76.60;;;;;;5052242;28;20082;-64
2022/08/22 05:33:06;;;;;;;15.43;2.97;;;32.80;77.00;;;;;;5060308;28;20072;-64
2022/08/22 05:35:37;;;;;;;10.25;2.60;;;32.80;77.30;;;;;;5047820;28;20134;-64
2022/08/22 05:38:08;;;;;;;7.28;2.30;;;32.80;78.00;;;;;;5042151;28;20442;-64
2022/08/22 05:40:36;;;;;;;10.57;2.40;;;32.80;78.30;;;;;;5052683;28;20115;-65
2022/08/22 05:43:04;;;;;;;8.32;3.00;;;32.70;78.80;;;;;;5048773;28;20103;-62
2022/08/22 05:45:35;;;;;;;17.02;3.08;;;32.60;79.20;;;;;;5048698;28;20098;-63
2022/08/22 05:48:16;;;;;;;13.35;2.65;;;32.60;79.50;;;;;;5048394;28;20124;-66
2022/08/22 05:50:57;;;;;;;15.50;3.28;;;32.50;79.70;;;;;;5049670;28;20068;-64
2022/08/22 05:53:41;;;;;;;31.33;3.60;;;32.50;79.80;;;;;;5049459;28;20077;-66
2022/08/22 05:56:18;;;;;;;13.50;3.10;;;32.50;80.00;;;;;;5059186;28;20072;-67
2022/08/22 05:58:50;;;;;;;10.45;2.50;;;32.50;80.00;;;;;;5048946;28;20075;-63
2022/08/22 06:01:16;;;;;;;10.13;3.47;;;32.50;80.10;;;;;;5049081;28;20073;-64
2022/08/22 06:03:55;;;;;;;11.05;2.67;;;32.40;80.30;;;;;;5050239;28;20546;-66
2022/08/22 06:06:25;;;;;;;7.45;2.53;;;32.40;80.30;;;;;;5065605;28;20141;-62
2022/08/22 06:09:07;;;;;;;14.15;3.05;;;32.40;80.40;;;;;;5048703;28;20457;-64
2022/08/22 06:11:56;;;;;;;10.93;3.15;;;32.50;80.10;;;;;;5062869;28;20452;-64
2022/08/22 06:14:29;;;;;;;9.27;2.85;;;32.50;79.90;;;;;;5049429;28;20073;-62
2022/08/22 06:17:30;;;;;;;11.50;3.13;;;32.40;79.80;;;;;;5048639;28;20452;-64
2022/08/22 06:19:58;;;;;;;11.00;2.83;;;32.40;79.90;;;;;;5049273;28;20126;-61
2022/08/22 06:22:28;;;;;;;11.23;2.55;;;32.40;79.00;;;;;;5049304;28;20167;-63
2022/08/22 06:25:04;;;;;;;11.13;2.55;;;32.40;78.80;;;;;;5049581;28;20072;-63
2022/08/22 06:27:31;;;;;;;8.38;2.60;;;32.40;78.60;;;;;;5051729;28;20076;-63
2022/08/22 06:30:01;;;;;;;10.55;2.95;;;32.40;78.40;;;;;;5047449;28;20120;-63
2022/08/22 06:32:32;;;;;;;11.48;3.08;;;32.40;78.70;;;;;;5064211;28;20077;-63
2022/08/22 06:35:05;;;;;;;12.98;2.92;;;32.40;79.30;;;;;;5049077;28;20108;-62
2022/08/22 06:37:39;;;;;;;14.25;2.92;;;32.40;80.10;;;;;;5047376;28;20167;-62
2022/08/22 06:40:09;;;;;;;10.52;2.95;;;32.40;80.50;;;;;;5063068;28;20127;-58
2022/08/22 06:42:43;;;;;;;9.25;2.65;;;32.30;80.80;;;;;;5047893;28;21755;-59
2022/08/22 06:45:29;;;;;;;11.75;3.13;;;32.30;81.00;;;;;;5062341;28;20076;-61
2022/08/22 06:48:05;;;;;;;12.32;3.05;;;32.30;81.30;;;;;;5031551;28;20106;-61
2022/08/22 06:50:33;;;;;;;12.23;3.35;;;32.20;81.40;;;;;;5054707;28;20079;-61
2022/08/22 06:53:00;;;;;;;9.32;2.78;;;32.20;81.60;;;;;;5047778;28;20068;-61
2022/08/22 06:55:29;;;;;;;9.90;3.15;;;32.10;81.70;;;;;;5048288;28;20118;-62
2022/08/22 06:58:00;;;;;;;13.15;3.20;;;32.00;82.00;;;;;;5063818;28;20098;-61
2022/08/22 07:00:26;;;;;;;11.07;2.75;;;32.00;82.50;;;;;;5047877;28;20446;-61
2022/08/22 07:03:11;;;;;;;14.48;3.42;;;32.00;82.90;;;;;;5064634;28;20163;-60
2022/08/22 07:05:41;;;;;;;9.50;2.63;;;32.00;83.00;;;;;;5042755;28;20117;-62
2022/08/22 07:08:14;;;;;;;13.82;2.92;;;32.00;83.20;;;;;;5056232;28;20096;-61
2022/08/22 07:10:57;;;;;;;11.27;2.67;;;32.00;83.30;;;;;;5047420;28;20073;-59
2022/08/22 07:13:26;;;;;;;10.60;2.65;;;32.00;83.50;;;;;;5064733;28;20088;-60
2022/08/22 07:16:00;;;;;;;9.52;2.60;;;32.00;83.50;;;;;;5047887;28;20078;-63
2022/08/22 07:18:30;;;;;;;10.77;2.47;;;31.90;83.70;;;;;;5047126;28;20100;-59
2022/08/22 07:21:03;;;;;;;8.27;2.80;;;31.80;84.30;;;;;;5063486;28;20115;-60
2022/08/22 07:23:46;;;;;;;11.68;2.75;;;31.80;84.60;;;;;;5030154;28;20574;-62
2022/08/22 07:26:31;;;;;;;8.73;2.50;;;31.80;84.60;;;;;;5047725;28;20084;-60
2022/08/22 07:29:09;;;;;;;9.90;2.60;;;31.80;85.00;;;;;;5045874;28;20087;-63
2022/08/22 07:32:09;;;;;;;9.13;2.95;;;31.80;85.20;;;;;;5047565;28;20170;-63
2022/08/22 07:34:36;;;;;;;14.70;2.75;;;31.70;85.50;;;;;;5026973;28;20495;-59
2022/08/22 07:37:19;;;;;;;8.60;2.85;;;31.70;86.00;;;;;;5047159;28;20157;-61
2022/08/22 07:40:12;;;;;;;8.82;2.47;;;31.60;86.30;;;;;;5046488;28;20165;-61
2022/08/22 07:42:55;;;;;;;11.13;3.10;;;31.60;86.50;;;;;;5048633;28;20079;-60
2022/08/22 07:45:33;;;;;;;8.02;2.90;;;31.60;86.40;;;;;;5043377;28;20076;-61
2022/08/22 07:48:24;;;;;;;11.40;2.75;;;31.60;86.10;;;;;;5062976;28;20072;-58
2022/08/22 07:50:56;;;;;;;14.55;2.83;;;31.60;85.90;;;;;;5044341;28;20475;-58
2022/08/22 07:53:29;;;;;;;9.82;2.40;;;31.50;85.60;;;;;;5047978;28;20406;-59
2022/08/22 07:55:57;;;;;;;7.72;2.47;;;31.60;85.40;;;;;;5045778;28;20076;-61
2022/08/22 07:58:28;;;;;;;10.65;2.47;;;31.60;85.40;;;;;;5062661;28;20115;-57
2022/08/22 08:00:56;;;;;;;10.82;2.90;;;31.60;85.30;;;;;;5046271;28;20194;-59
2022/08/22 08:03:26;;;;;;;5.57;2.30;;;31.60;85.10;;;;;;5066434;28;20082;-60
2022/08/22 08:05:53;;;;;;;8.00;2.53;;;31.60;85.00;;;;;;5046822;28;20076;-58
2022/08/22 08:08:29;;;;;;;11.90;2.50;;;31.60;84.90;;;;;;5044785;28;20088;-58
2022/08/22 08:10:58;;;;;;;7.78;2.20;;;31.60;84.80;;;;;;5048669;28;20131;-62
2022/08/22 08:13:34;;;;;;;11.35;2.53;;;31.60;84.60;;;;;;5051772;28;20080;-58
2022/08/22 08:16:04;;;;;;;9.80;2.25;;;31.60;84.80;;;;;;5047937;28;20106;-60
2022/08/22 08:18:34;;;;;;;8.73;2.28;;;31.60;85.00;;;;;;5067890;28;20089;-58
2022/08/22 08:21:09;;;;;;;8.75;2.35;;;31.60;85.20;;;;;;5067061;28;20076;-58
2022/08/22 08:23:40;;;;;;;8.63;2.40;;;31.60;85.90;;;;;;5049763;28;20072;-61
2022/08/22 08:26:16;;;;;;;7.78;2.60;;;31.60;84.90;;;;;;5052640;28;20171;-59
2022/08/22 08:28:52;;;;;;;6.57;2.63;;;31.60;84.50;;;;;;5050050;28;20158;-58
2022/08/22 08:31:26;;;;;;;5.72;2.25;;;31.70;84.10;;;;;;5034176;28;20075;-60
2022/08/22 08:34:09;;;;;;;10.30;2.88;;;31.70;84.80;;;;;;5052352;28;20088;-61
2022/08/22 08:36:51;;;;;;;16.55;2.80;;;31.80;86.00;;;;;;5051088;28;20548;-61
2022/08/22 08:39:35;;;;;;;45.55;5.25;;;31.70;88.20;;;;;;5051158;28;20127;-61
2022/08/22 08:42:14;;;;;;;182.30;14.98;;;31.60;90.20;;;;;;5050561;28;20627;-58
2022/08/22 08:45:17;;;;;;;362.20;25.88;;;31.50;85.20;;;;;;5050751;28;20528;-60
2022/08/22 08:48:08;;;;;;;470.67;33.72;;;31.40;81.00;;;;;;5048818;28;20102;-61
2022/08/22 08:51:00;;;;;;;469.73;33.63;;;31.40;80.50;;;;;;5049099;28;20107;-57
2022/08/22 08:54:08;;;;;;;670.85;53.55;;;31.50;78.90;;;;;;5046917;28;20154;-61
2022/08/22 08:57:00;;;;;;;900.50;81.53;;;31.40;73.70;;;;;;5065000;28;20083;-66
2022/08/22 08:59:44;;;;;;;606.05;48.78;;;31.50;70.90;;;;;;5049115;28;20064;-67
2022/08/22 09:02:35;;;;;;;369.73;36.10;;;31.00;75.40;;;;;;5062798;28;20096;-65
2022/08/22 09:05:07;;;;;;;154.90;18.20;;;30.40;83.20;;;;;;5066394;28;20075;-67
2022/08/22 09:07:56;;;;;;;85.45;11.63;;;29.10;90.00;;;;;;5050546;28;20446;-67
2022/08/22 09:10:53;;;;;;;78.20;11.20;;;28.70;91.70;;;;;;5065309;28;20612;-66
2022/08/22 09:13:32;;;;;;;115.60;13.90;;;28.20;93.10;;;;;;5052077;28;20068;-66
2022/08/22 09:16:36;;;;;;;85.13;9.90;;;27.80;95.00;;;;;;5051275;28;20068;-66
2022/08/22 09:19:14;;;;;;;82.70;8.73;;;27.70;97.20;;;;;;5066647;28;20457;-67
2022/08/22 09:21:53;;;;;;;60.50;8.02;;;27.10;98.70;;;;;;5049565;28;20070;-67
2022/08/22 09:24:55;;;;;;;62.95;7.78;;;27.00;99.90;;;;;;5050289;28;20589;-70
2022/08/22 09:27:30;;;;;;;66.28;8.90;;;26.80;99.90;;;;;;5051005;28;20771;-69
2022/08/22 09:30:09;;;;;;;58.42;8.32;;;26.60;99.90;;;;;;5054894;28;20088;-72
2022/08/22 09:32:53;;;;;;;42.97;7.20;;;26.20;99.90;;;;;;5056938;28;20555;-68
2022/08/22 09:35:38;;;;;;;41.67;7.72;;;25.80;99.90;;;;;;5053886;28;20073;-69
2022/08/22 09:38:26;;;;;;;38.90;6.70;;;25.70;99.90;;;;;;5049412;28;20073;-67
2022/08/22 09:41:17;;;;;;;28.92;5.03;;;25.40;99.90;;;;;;5054690;28;20136;-68
2022/08/22 09:44:05;;;;;;;16.02;3.55;;;25.10;99.90;;;;;;5049832;28;20077;-67
2022/08/22 09:46:52;;;;;;;22.98;3.53;;;25.10;99.90;;;;;;5047211;28;20155;-68
2022/08/22 09:49:36;;;;;;;;;;;25.00;99.90;;;;;;5058382;28;20199;-69
2022/08/22 09:52:27;;;;;;;12.32;3.40;;;24.80;99.90;;;;;;5046901;28;19957;-68
2022/08/22 09:55:08;;;;;;;19.80;3.72;;;24.70;99.90;;;;;;5065220;28;20086;-68
2022/08/22 09:57:49;;;;;;;13.32;3.30;;;24.70;99.90;;;;;;5064853;28;20077;-68
2022/08/22 10:00:47;;;;;;;14.85;3.38;;;24.70;99.90;;;;;;5048131;28;21050;-69
2022/08/22 10:03:32;;;;;;;12.10;2.95;;;24.70;99.90;;;;;;5040346;28;20092;-70
2022/08/22 10:06:15;;;;;;;17.63;3.30;;;24.70;99.90;;;;;;5064300;28;20112;-71
2022/08/22 10:09:28;;;;;;;20.65;3.95;;;24.80;99.90;;;;;;5063772;28;20119;-68
2022/08/22 10:12:09;;;;;;;11.65;3.25;;;24.80;99.90;;;;;;5049551;28;20066;-68
2022/08/22 10:15:03;;;;;;;19.38;3.08;;;24.90;99.90;;;;;;5048780;28;20148;-67
2022/08/22 10:17:35;;;;;;;12.48;3.05;;;25.00;99.90;;;;;;5056138;28;20573;-67
2022/08/22 10:20:20;;;;;;;8.95;2.58;;;25.20;99.90;;;;;;5047368;28;20128;-68
2022/08/22 10:23:08;;;;;;;5.32;1.60;;;25.30;99.90;;;;;;5047305;28;20172;-67
2022/08/22 10:25:42;;;;;;;5.10;1.40;;;25.30;99.90;;;;;;5047744;28;20217;-66
2022/08/22 10:28:45;;;;;;;4.25;1.33;;;25.20;99.90;;;;;;5049331;28;20085;-66
2022/08/22 10:31:30;;;;;;;4.95;1.35;;;25.20;99.90;;;;;;5046921;28;20562;-65
2022/08/22 10:34:03;;;;;;;6.75;1.38;;;25.20;99.90;;;;;;5048111;28;20105;-65
2022/08/22 10:37:14;;;;;;;11.27;1.73;;;25.20;99.90;;;;;;5064521;28;20162;-67
2022/08/22 10:39:57;;;;;;;4.45;1.13;;;25.30;99.90;;;;;;5048420;28;20444;-68
2022/08/22 10:42:25;;;;;;;4.07;1.00;;;25.40;99.90;;;;;;5047602;28;20103;-67
2022/08/22 10:45:23;;;;;;;4.78;1.40;;;25.60;99.90;;;;;;5048890;28;20086;-67
2022/08/22 10:47:52;;;;;;;;;;;25.70;99.90;;;;;;5061745;28;20134;-67
2022/08/22 10:50:32;;;;;;;5.18;1.60;;;25.80;99.90;;;;;;5054469;28;19970;-66
2022/08/22 10:53:32;;;;;;;10.57;2.10;;;25.90;99.90;;;;;;5046392;28;20081;-67
2022/08/22 10:56:35;;;;;;;20.27;4.90;;;26.00;99.90;;;;;;5047214;28;20080;-66
2022/08/22 10:59:42;;;;;;;27.13;6.40;;;26.10;99.90;;;;;;5047628;28;20109;-65
2022/08/22 11:02:29;;;;;;;37.45;5.82;;;26.10;99.90;;;;;;4968781;28;20651;-66
2022/08/22 11:05:14;;;;;;;32.83;6.15;;;26.00;99.90;;;;;;5045116;28;20085;-67
2022/08/22 11:08:06;;;;;;;23.90;4.03;;;26.00;99.90;;;;;;5046738;28;20167;-67
2022/08/22 11:11:02;;;;;;;25.75;3.63;;;26.10;99.90;;;;;;5046426;28;20100;-67
2022/08/22 11:13:47;;;;;;;16.85;3.30;;;26.20;99.90;;;;;;5051024;28;20167;-67
2022/08/22 11:16:23;;;;;;;15.65;3.22;;;26.30;99.90;;;;;;5048139;28;20124;-66
2022/08/22 11:19:09;;;;;;;19.13;3.80;;;26.40;99.90;;;;;;5047628;28;20128;-67
2022/08/22 11:21:54;;;;;;;11.52;2.47;;;26.50;99.90;;;;;;5047347;28;20077;-66
2022/08/22 11:24:51;;;;;;;12.85;2.47;;;26.70;99.90;;;;;;5047213;28;20080;-67
2022/08/22 11:27:42;;;;;;;;;;;26.90;99.90;;;;;;5046953;28;20073;-67
2022/08/22 11:30:28;;;;;;;34.45;11.13;;;27.10;99.90;;;;;;5048133;28;20437;-67
2022/08/22 11:33:10;;;;;;;70.07;19.88;;;27.30;99.90;;;;;;5063210;28;20150;-67
2022/08/22 11:35:39;;;;;;;106.72;15.63;;;27.50;99.90;;;;;;5053983;28;20174;-67
2022/08/22 11:38:35;;;;;;;96.38;10.75;;;27.80;99.90;;;;;;5064415;28;20076;-67
2022/08/22 11:41:20;;;;;;;116.32;13.40;;;27.90;99.90;;;;;;5050055;28;20939;-68
2022/08/22 11:44:36;;;;;;;124.93;10.75;;;28.10;99.90;;;;;;5047999;28;20076;-64
2022/08/22 11:47:09;;;;;;;118.65;11.68;;;28.20;99.90;;;;;;4990522;28;20165;-65
2022/08/22 11:50:04;;;;;;;125.63;11.55;;;28.30;99.90;;;;;;4970525;28;20506;-66
2022/08/22 11:52:52;;;;;;;110.75;11.40;;;28.40;99.90;;;;;;4996534;28;20153;-66
2022/08/22 11:55:55;;;;;;;126.43;10.75;;;28.40;99.90;;;;;;4989280;28;20136;-66
2022/08/22 11:58:24;;;;;;;122.75;12.65;;;28.40;99.90;;;;;;5006139;28;20554;-66
2022/08/22 12:01:10;;;;;;;134.05;13.25;;;28.50;99.90;;;;;;4991380;28;20160;-65
2022/08/22 12:04:06;;;;;;;130.13;13.20;;;28.50;99.90;;;;;;4989390;28;20077;-67
2022/08/22 12:07:09;;;;;;;146.00;13.85;;;28.60;99.90;;;;;;5001206;28;20081;-66
2022/08/22 12:10:13;;;;;;;133.60;13.27;;;28.70;99.90;;;;;;4988430;28;20133;-67
2022/08/22 12:13:12;;;;;;;136.85;12.63;;;28.70;99.90;;;;;;4996077;28;20077;-66
2022/08/22 12:15:47;;;;;;;134.60;13.07;;;28.70;99.90;;;;;;4982369;28;20094;-67
2022/08/22 12:18:13;;;;;;;102.32;11.77;;;28.80;99.90;;;;;;4976328;28;20108;-67
2022/08/22 12:21:03;;;;;;;108.45;10.95;;;28.80;99.90;;;;;;4991865;28;20470;-67
2022/08/22 12:23:49;;;;;;;96.55;9.63;;;28.90;99.90;;;;;;5027403;28;20108;-68
2022/08/22 12:26:31;;;;;;;67.35;7.57;;;28.90;99.90;;;;;;5048525;28;20117;-67
2022/08/22 12:29:27;;;;;;;65.63;7.35;;;29.00;99.90;;;;;;5049408;28;20560;-67
2022/08/22 12:32:21;;;;;;;49.00;6.45;;;29.00;99.90;;;;;;5050114;28;20095;-68
2022/08/22 12:35:13;;;;;;;57.58;7.18;;;29.10;99.90;;;;;;5049126;28;20071;-67
2022/08/22 12:37:42;;;;;;;65.32;7.53;;;29.10;99.90;;;;;;5050185;28;20461;-67
2022/08/22 12:40:15;;;;;;;74.28;6.93;;;29.20;99.90;;;;;;4982814;28;1909081;-67
2022/08/22 12:42:44;;;;;;;93.78;8.68;;;29.20;99.90;;;;;;5061899;28;20076;-67
2022/08/22 12:45:26;;;;;;;80.55;8.90;;;29.20;99.90;;;;;;5053664;28;20071;-67
2022/08/22 12:48:29;;;;;;;81.15;9.65;;;29.30;99.90;;;;;;5050230;28;20141;-68
2022/08/22 12:50:56;;;;;;;84.57;9.65;;;29.30;99.90;;;;;;5048675;28;20081;-67
2022/08/22 12:53:54;;;;;;;71.05;7.80;;;29.40;99.90;;;;;;5050110;28;20477;-69
2022/08/22 12:57:03;;;;;;;78.78;9.02;;;29.40;99.90;;;;;;5053762;28;20080;-69
2022/08/22 12:59:38;;;;;;;66.57;8.75;;;29.50;99.90;;;;;;5038981;28;20081;-67
2022/08/22 13:02:18;;;;;;;67.70;7.63;;;29.50;99.80;;;;;;5049532;28;20088;-69
2022/08/22 13:04:53;;;;;;;82.10;8.10;;;29.60;99.90;;;;;;5064725;28;20226;-67
2022/08/22 13:07:23;;;;;;;69.93;7.95;;;29.60;99.80;;;;;;5056608;28;20102;-68
2022/08/22 13:10:00;;;;;;;72.60;8.48;;;29.60;99.90;;;;;;5048978;28;20080;-67
2022/08/22 13:12:37;;;;;;;69.13;7.55;;;29.60;99.60;;;;;;5049382;28;20178;-68
2022/08/22 13:15:30;;;;;;;71.47;7.63;;;29.70;99.70;;;;;;5050077;28;20099;-67
2022/08/22 13:17:59;;;;;;;60.08;6.53;;;29.60;99.80;;;;;;5043717;28;20092;-68
2022/08/22 13:20:28;;;;;;;67.00;8.60;;;29.70;99.90;;;;;;5049119;28;20079;-67
2022/08/22 13:22:55;;;;;;;69.55;8.60;;;29.70;99.90;;;;;;5049119;28;20080;-68
2022/08/22 13:25:23;;;;;;;85.50;9.15;;;29.70;99.90;;;;;;5048784;28;20080;-67
2022/08/22 13:28:01;;;;;;;78.50;9.48;;;29.70;99.90;;;;;;5049585;28;20626;-69
2022/08/22 13:30:41;;;;;;;91.22;9.52;;;29.40;99.90;;;;;;5064998;28;20088;-67
2022/08/22 13:33:14;;;;;;;95.25;9.48;;;29.20;99.90;;;;;;5048201;28;20080;-67
2022/08/22 13:35:53;;;;;;;62.13;6.97;;;29.10;99.90;;;;;;5062792;28;20079;-68
2022/08/22 13:38:45;;;;;;;59.58;6.35;;;28.90;99.90;;;;;;5055461;28;20076;-68
2022/08/22 13:41:20;;;;;;;35.58;5.45;;;28.60;99.90;;;;;;5039081;28;20093;-67
2022/08/22 13:44:04;;;;;;;33.78;4.28;;;28.40;99.90;;;;;;5048445;28;20072;-68
2022/08/22 13:46:33;;;;;;;28.80;4.22;;;28.20;99.90;;;;;;5049038;28;20077;-68
2022/08/22 13:49:01;;;;;;;33.53;4.18;;;28.10;99.90;;;;;;5050043;28;20158;-67
2022/08/22 13:51:43;;;;;;;30.13;3.42;;;28.10;99.90;;;;;;5053883;28;20072;-66
2022/08/22 13:54:10;;;;;;;24.55;3.78;;;28.00;99.90;;;;;;5047204;28;20068;-67
2022/08/22 13:56:41;;;;;;;29.58;4.32;;;28.00;99.90;;;;;;5048326;28;20079;-66